sensor_id;sensor_type;location;lat;lon;timestamp;temperature;humidity
6118;DHT22;3089;48.202;11.510;2023-04-07T00:00:11;5.70;99.90
6118;DHT22;3089;48.202;11.510;2023-04-07T00:02:39;5.70;99.90
6118;DHT22;3089;48.202;11.510;2023-04-07T00:05:10;5.70;99.90
6118;DHT22;3089;48.202;11.510;2023-04-07T00:07:38;5.70;99.90
6118;DHT22;3089;48.202;11.510;2023-04-07T00:10:21;5.70;99.90
6118;DHT22;3089;48.202;11.510;2023-04-07T00:12:50;5.70;99.90
6118;DHT22;3089;48.202;11.510;2023-04-07T00:15:18;5.70;99.90
6118;DHT22;3089;48.202;11.510;2023-04-07T00:17:46;5.60;99.90
6118;DHT22;3089;48.202;11.510;2023-04-07T00:20:14;5.70;99.90
6118;DHT22;3089;48.202;11.510;2023-04-07T00:22:42;5.70;99.90
6118;DHT22;3089;48.202;11.510;2023-04-07T00:25:10;5.70;99.90
6118;DHT22;3089;48.202;11.510;2023-04-07T00:27:38;5.70;99.90
6118;DHT22;3089;48.202;11.510;2023-04-07T00:30:08;5.70;99.90
6118;DHT22;3089;48.202;11.510;2023-04-07T00:32:36;5.70;99.90
6118;DHT22;3089;48.202;11.510;2023-04-07T00:35:04;5.70;99.90
6118;DHT22;3089;48.202;11.510;2023-04-07T00:37:32;5.70;99.90
6118;DHT22;3089;48.202;11.510;2023-04-07T00:40:00;5.70;99.90
6118;DHT22;3089;48.202;11.510;2023-04-07T00:42:29;5.60;99.90
6118;DHT22;3089;48.202;11.510;2023-04-07T00:44:57;5.70;99.90
6118;DHT22;3089;48.202;11.510;2023-04-07T00:47:26;5.70;99.90
6118;DHT22;3089;48.202;11.510;2023-04-07T00:49:54;5.70;99.90
6118;DHT22;3089;48.202;11.510;2023-04-07T00:52:23;5.60;99.90
6118;DHT22;3089;48.202;11.510;2023-04-07T00:54:55;5.70;99.90
6118;DHT22;3089;48.202;11.510;2023-04-07T00:57:23;5.60;99.90
6118;DHT22;3089;48.202;11.510;2023-04-07T00:59:51;5.60;99.90
6118;DHT22;3089;48.202;11.510;2023-04-07T01:02:22;5.50;99.90
6118;DHT22;3089;48.202;11.510;2023-04-07T01:05:00;5.50;99.90
6118;DHT22;3089;48.202;11.510;2023-04-07T01:07:33;5.50;99.90
6118;DHT22;3089;48.202;11.510;2023-04-07T01:10:03;5.60;99.90
6118;DHT22;3089;48.202;11.510;2023-04-07T01:12:37;5.60;99.90
6118;DHT22;3089;48.202;11.510;2023-04-07T01:15:09;5.50;99.90
6118;DHT22;3089;48.202;11.510;2023-04-07T01:17:42;5.60;99.90
6118;DHT22;3089;48.202;11.510;2023-04-07T01:20:15;5.60;99.90
6118;DHT22;3089;48.202;11.510;2023-04-07T01:22:46;5.60;99.90
6118;DHT22;3089;48.202;11.510;2023-04-07T01:25:25;5.50;99.90
6118;DHT22;3089;48.202;11.510;2023-04-07T01:28:13;5.50;99.90
6118;DHT22;3089;48.202;11.510;2023-04-07T01:30:44;5.50;99.90
6118;DHT22;3089;48.202;11.510;2023-04-07T01:33:13;5.50;99.90
6118;DHT22;3089;48.202;11.510;2023-04-07T01:35:42;5.50;99.90
6118;DHT22;3089;48.202;11.510;2023-04-07T01:38:11;5.50;99.90
6118;DHT22;3089;48.202;11.510;2023-04-07T01:40:39;5.50;99.90
6118;DHT22;3089;48.202;11.510;2023-04-07T01:43:08;5.40;99.90
6118;DHT22;3089;48.202;11.510;2023-04-07T01:45:36;5.40;99.90
6118;DHT22;3089;48.202;11.510;2023-04-07T01:48:07;5.40;99.90
6118;DHT22;3089;48.202;11.510;2023-04-07T01:50:35;5.40;99.90
6118;DHT22;3089;48.202;11.510;2023-04-07T01:53:04;5.40;99.90
6118;DHT22;3089;48.202;11.510;2023-04-07T01:55:33;5.40;99.90
6118;DHT22;3089;48.202;11.510;2023-04-07T01:58:03;5.30;99.90
6118;DHT22;3089;48.202;11.510;2023-04-07T02:00:32;5.30;99.90
6118;DHT22;3089;48.202;11.510;2023-04-07T02:03:06;5.40;99.90
6118;DHT22;3089;48.202;11.510;2023-04-07T02:05:38;5.40;99.90
6118;DHT22;3089;48.202;11.510;2023-04-07T02:08:07;5.50;99.90
6118;DHT22;3089;48.202;11.510;2023-04-07T02:10:37;5.40;99.90
6118;DHT22;3089;48.202;11.510;2023-04-07T02:13:07;5.40;99.90
6118;DHT22;3089;48.202;11.510;2023-04-07T02:15:36;5.40;99.90
6118;DHT22;3089;48.202;11.510;2023-04-07T02:18:06;5.40;99.90
6118;DHT22;3089;48.202;11.510;2023-04-07T02:20:36;5.30;99.90
6118;DHT22;3089;48.202;11.510;2023-04-07T02:23:06;5.40;99.90
6118;DHT22;3089;48.202;11.510;2023-04-07T02:25:34;5.40;99.90
6118;DHT22;3089;48.202;11.510;2023-04-07T02:28:04;5.40;99.90
6118;DHT22;3089;48.202;11.510;2023-04-07T02:30:32;5.30;99.90
6118;DHT22;3089;48.202;11.510;2023-04-07T02:33:00;5.30;99.90
6118;DHT22;3089;48.202;11.510;2023-04-07T02:35:29;5.30;99.90
6118;DHT22;3089;48.202;11.510;2023-04-07T02:37:57;5.40;99.90
6118;DHT22;3089;48.202;11.510;2023-04-07T02:40:25;5.40;99.90
6118;DHT22;3089;48.202;11.510;2023-04-07T02:42:53;5.40;99.90
6118;DHT22;3089;48.202;11.510;2023-04-07T02:45:21;5.40;99.90
6118;DHT22;3089;48.202;11.510;2023-04-07T02:47:49;5.40;99.90
6118;DHT22;3089;48.202;11.510;2023-04-07T02:50:18;5.40;99.90
6118;DHT22;3089;48.202;11.510;2023-04-07T02:52:48;5.50;99.90
6118;DHT22;3089;48.202;11.510;2023-04-07T02:55:16;5.40;99.90
6118;DHT22;3089;48.202;11.510;2023-04-07T02:57:44;5.40;99.90
6118;DHT22;3089;48.202;11.510;2023-04-07T03:00:14;5.30;99.90
6118;DHT22;3089;48.202;11.510;2023-04-07T03:02:42;5.40;99.90
6118;DHT22;3089;48.202;11.510;2023-04-07T03:05:10;5.30;99.90
6118;DHT22;3089;48.202;11.510;2023-04-07T03:07:38;5.30;99.90
6118;DHT22;3089;48.202;11.510;2023-04-07T03:10:08;5.40;99.90
6118;DHT22;3089;48.202;11.510;2023-04-07T03:12:36;5.30;99.90
6118;DHT22;3089;48.202;11.510;2023-04-07T03:15:04;5.30;99.90
6118;DHT22;3089;48.202;11.510;2023-04-07T03:17:32;5.30;99.90
6118;DHT22;3089;48.202;11.510;2023-04-07T03:20:01;5.40;99.90
6118;DHT22;3089;48.202;11.510;2023-04-07T03:22:31;5.30;99.90
6118;DHT22;3089;48.202;11.510;2023-04-07T03:24:59;5.40;99.90
6118;DHT22;3089;48.202;11.510;2023-04-07T03:27:28;5.30;99.90
6118;DHT22;3089;48.202;11.510;2023-04-07T03:29:56;5.40;99.90
6118;DHT22;3089;48.202;11.510;2023-04-07T03:32:24;5.30;99.90
6118;DHT22;3089;48.202;11.510;2023-04-07T03:34:52;5.30;99.90
6118;DHT22;3089;48.202;11.510;2023-04-07T03:37:20;5.30;99.90
6118;DHT22;3089;48.202;11.510;2023-04-07T03:39:47;5.30;99.90
6118;DHT22;3089;48.202;11.510;2023-04-07T03:42:17;5.30;99.90
6118;DHT22;3089;48.202;11.510;2023-04-07T03:44:46;5.30;99.90
6118;DHT22;3089;48.202;11.510;2023-04-07T03:47:14;5.30;99.90
6118;DHT22;3089;48.202;11.510;2023-04-07T03:49:42;5.20;99.90
6118;DHT22;3089;48.202;11.510;2023-04-07T03:52:10;5.30;99.90
6118;DHT22;3089;48.202;11.510;2023-04-07T03:54:38;5.30;99.90
6118;DHT22;3089;48.202;11.510;2023-04-07T03:57:05;5.30;99.90
6118;DHT22;3089;48.202;11.510;2023-04-07T03:59:34;5.20;99.90
6118;DHT22;3089;48.202;11.510;2023-04-07T04:02:04;5.20;99.90
6118;DHT22;3089;48.202;11.510;2023-04-07T04:04:32;5.20;99.90
6118;DHT22;3089;48.202;11.510;2023-04-07T04:07:00;5.20;99.90
6118;DHT22;3089;48.202;11.510;2023-04-07T04:09:28;5.20;99.90
6118;DHT22;3089;48.202;11.510;2023-04-07T04:11:56;5.20;99.90
6118;DHT22;3089;48.202;11.510;2023-04-07T04:14:27;5.30;99.90
6118;DHT22;3089;48.202;11.510;2023-04-07T04:16:54;5.20;99.90
6118;DHT22;3089;48.202;11.510;2023-04-07T04:19:24;5.30;99.90
6118;DHT22;3089;48.202;11.510;2023-04-07T04:21:51;5.30;99.90
6118;DHT22;3089;48.202;11.510;2023-04-07T04:24:19;5.30;99.90
6118;DHT22;3089;48.202;11.510;2023-04-07T04:26:47;5.30;99.90
6118;DHT22;3089;48.202;11.510;2023-04-07T04:29:15;5.30;99.90
6118;DHT22;3089;48.202;11.510;2023-04-07T04:31:43;5.30;99.90
6118;DHT22;3089;48.202;11.510;2023-04-07T04:34:11;5.30;99.90
6118;DHT22;3089;48.202;11.510;2023-04-07T04:36:40;5.20;99.90
6118;DHT22;3089;48.202;11.510;2023-04-07T04:39:08;5.20;99.90
6118;DHT22;3089;48.202;11.510;2023-04-07T04:41:36;5.20;99.90
6118;DHT22;3089;48.202;11.510;2023-04-07T04:44:04;5.30;99.90
6118;DHT22;3089;48.202;11.510;2023-04-07T04:46:32;5.30;99.90
6118;DHT22;3089;48.202;11.510;2023-04-07T04:49:00;5.30;99.90
6118;DHT22;3089;48.202;11.510;2023-04-07T04:51:28;5.30;99.90
6118;DHT22;3089;48.202;11.510;2023-04-07T04:53:57;5.30;99.90
6118;DHT22;3089;48.202;11.510;2023-04-07T04:56:26;5.30;99.90
6118;DHT22;3089;48.202;11.510;2023-04-07T04:58:53;5.30;99.90
6118;DHT22;3089;48.202;11.510;2023-04-07T05:01:21;5.30;99.90
6118;DHT22;3089;48.202;11.510;2023-04-07T05:03:49;5.30;99.90
6118;DHT22;3089;48.202;11.510;2023-04-07T05:06:17;5.30;99.90
6118;DHT22;3089;48.202;11.510;2023-04-07T05:08:45;5.30;99.90
6118;DHT22;3089;48.202;11.510;2023-04-07T05:11:15;5.30;99.90
6118;DHT22;3089;48.202;11.510;2023-04-07T05:13:43;5.30;99.90
6118;DHT22;3089;48.202;11.510;2023-04-07T05:16:11;5.40;99.90
6118;DHT22;3089;48.202;11.510;2023-04-07T05:18:39;5.40;99.90
6118;DHT22;3089;48.202;11.510;2023-04-07T05:21:07;5.30;99.90
6118;DHT22;3089;48.202;11.510;2023-04-07T05:23:35;5.40;99.90
6118;DHT22;3089;48.202;11.510;2023-04-07T05:26:03;5.30;99.90
6118;DHT22;3089;48.202;11.510;2023-04-07T05:28:32;5.40;99.90
6118;DHT22;3089;48.202;11.510;2023-04-07T05:31:00;5.40;99.90
6118;DHT22;3089;48.202;11.510;2023-04-07T05:33:28;5.30;99.90
6118;DHT22;3089;48.202;11.510;2023-04-07T05:35:56;5.30;99.90
6118;DHT22;3089;48.202;11.510;2023-04-07T05:38:24;5.30;99.90
6118;DHT22;3089;48.202;11.510;2023-04-07T05:40:51;5.30;99.90
6118;DHT22;3089;48.202;11.510;2023-04-07T05:43:19;5.40;99.90
6118;DHT22;3089;48.202;11.510;2023-04-07T05:45:48;5.30;99.90
6118;DHT22;3089;48.202;11.510;2023-04-07T05:48:16;5.30;99.90
6118;DHT22;3089;48.202;11.510;2023-04-07T05:50:44;5.40;99.90
6118;DHT22;3089;48.202;11.510;2023-04-07T05:53:13;5.30;99.90
6118;DHT22;3089;48.202;11.510;2023-04-07T05:55:41;5.50;99.90
6118;DHT22;3089;48.202;11.510;2023-04-07T05:58:09;5.40;99.90
6118;DHT22;3089;48.202;11.510;2023-04-07T06:00:37;5.50;99.90
6118;DHT22;3089;48.202;11.510;2023-04-07T06:03:08;5.60;99.90
6118;DHT22;3089;48.202;11.510;2023-04-07T06:05:36;5.60;99.90
6118;DHT22;3089;48.202;11.510;2023-04-07T06:08:08;5.50;99.90
6118;DHT22;3089;48.202;11.510;2023-04-07T06:10:36;5.60;99.90
6118;DHT22;3089;48.202;11.510;2023-04-07T06:13:05;5.50;99.90
6118;DHT22;3089;48.202;11.510;2023-04-07T06:15:34;5.50;99.90
6118;DHT22;3089;48.202;11.510;2023-04-07T06:18:02;5.50;99.90
6118;DHT22;3089;48.202;11.510;2023-04-07T06:20:31;5.50;99.90
6118;DHT22;3089;48.202;11.510;2023-04-07T06:22:59;5.50;99.90
6118;DHT22;3089;48.202;11.510;2023-04-07T06:25:27;5.50;99.90
6118;DHT22;3089;48.202;11.510;2023-04-07T06:27:55;5.60;99.90
6118;DHT22;3089;48.202;11.510;2023-04-07T06:30:23;5.60;99.90
6118;DHT22;3089;48.202;11.510;2023-04-07T06:32:51;5.50;99.90
6118;DHT22;3089;48.202;11.510;2023-04-07T06:35:20;5.40;99.90
6118;DHT22;3089;48.202;11.510;2023-04-07T06:37:49;5.40;99.90
6118;DHT22;3089;48.202;11.510;2023-04-07T06:40:17;5.50;99.90
6118;DHT22;3089;48.202;11.510;2023-04-07T06:42:45;5.50;99.90
6118;DHT22;3089;48.202;11.510;2023-04-07T06:45:13;5.50;99.90
6118;DHT22;3089;48.202;11.510;2023-04-07T06:47:41;5.50;99.90
6118;DHT22;3089;48.202;11.510;2023-04-07T06:50:09;5.70;99.90
6118;DHT22;3089;48.202;11.510;2023-04-07T06:52:37;5.70;99.90
6118;DHT22;3089;48.202;11.510;2023-04-07T06:55:08;5.70;99.90
6118;DHT22;3089;48.202;11.510;2023-04-07T06:57:35;5.50;99.90
6118;DHT22;3089;48.202;11.510;2023-04-07T07:00:04;5.60;99.90
6118;DHT22;3089;48.202;11.510;2023-04-07T07:02:33;5.80;99.90
6118;DHT22;3089;48.202;11.510;2023-04-07T07:05:01;5.70;99.90
6118;DHT22;3089;48.202;11.510;2023-04-07T07:07:30;5.80;99.90
6118;DHT22;3089;48.202;11.510;2023-04-07T07:09:58;5.90;99.90
6118;DHT22;3089;48.202;11.510;2023-04-07T07:12:27;5.90;99.90
6118;DHT22;3089;48.202;11.510;2023-04-07T07:14:55;6.10;99.90
6118;DHT22;3089;48.202;11.510;2023-04-07T07:17:23;6.20;99.90
6118;DHT22;3089;48.202;11.510;2023-04-07T07:19:51;6.30;99.90
6118;DHT22;3089;48.202;11.510;2023-04-07T07:22:19;6.30;99.90
6118;DHT22;3089;48.202;11.510;2023-04-07T07:24:46;6.30;99.90
6118;DHT22;3089;48.202;11.510;2023-04-07T07:27:16;6.30;99.90
6118;DHT22;3089;48.202;11.510;2023-04-07T07:29:45;6.30;99.90
6118;DHT22;3089;48.202;11.510;2023-04-07T07:32:13;6.40;99.90
6118;DHT22;3089;48.202;11.510;2023-04-07T07:34:41;6.50;99.90
6118;DHT22;3089;48.202;11.510;2023-04-07T07:37:09;6.60;99.90
6118;DHT22;3089;48.202;11.510;2023-04-07T07:39:37;6.60;99.90
6118;DHT22;3089;48.202;11.510;2023-04-07T07:42:05;6.70;99.90
6118;DHT22;3089;48.202;11.510;2023-04-07T07:44:33;6.70;99.90
6118;DHT22;3089;48.202;11.510;2023-04-07T07:47:05;6.70;99.90
6118;DHT22;3089;48.202;11.510;2023-04-07T07:49:32;6.80;99.90
6118;DHT22;3089;48.202;11.510;2023-04-07T07:52:01;6.70;99.90
6118;DHT22;3089;48.202;11.510;2023-04-07T07:54:29;6.70;99.90
6118;DHT22;3089;48.202;11.510;2023-04-07T07:56:56;6.70;99.90
6118;DHT22;3089;48.202;11.510;2023-04-07T07:59:24;6.70;99.90
6118;DHT22;3089;48.202;11.510;2023-04-07T08:01:52;6.60;99.90
6118;DHT22;3089;48.202;11.510;2023-04-07T08:04:21;6.60;99.90
6118;DHT22;3089;48.202;11.510;2023-04-07T08:06:50;6.60;99.90
6118;DHT22;3089;48.202;11.510;2023-04-07T08:09:18;6.70;99.90
6118;DHT22;3089;48.202;11.510;2023-04-07T08:11:46;6.70;99.90
6118;DHT22;3089;48.202;11.510;2023-04-07T08:14:15;6.70;99.90
6118;DHT22;3089;48.202;11.510;2023-04-07T08:16:44;6.80;99.90
6118;DHT22;3089;48.202;11.510;2023-04-07T08:19:12;6.90;99.90
6118;DHT22;3089;48.202;11.510;2023-04-07T08:21:41;6.90;99.90
6118;DHT22;3089;48.202;11.510;2023-04-07T08:24:12;7.10;99.90
6118;DHT22;3089;48.202;11.510;2023-04-07T08:26:40;7.20;99.90
6118;DHT22;3089;48.202;11.510;2023-04-07T08:29:08;7.30;99.90
6118;DHT22;3089;48.202;11.510;2023-04-07T08:31:36;7.40;99.90
6118;DHT22;3089;48.202;11.510;2023-04-07T08:34:04;7.30;99.90
6118;DHT22;3089;48.202;11.510;2023-04-07T08:36:32;7.50;99.90
6118;DHT22;3089;48.202;11.510;2023-04-07T08:39:01;7.80;99.90
6118;DHT22;3089;48.202;11.510;2023-04-07T08:41:36;7.90;99.90
6118;DHT22;3089;48.202;11.510;2023-04-07T08:44:05;8.00;99.90
6118;DHT22;3089;48.202;11.510;2023-04-07T08:46:33;7.80;99.90
6118;DHT22;3089;48.202;11.510;2023-04-07T08:49:03;8.20;99.90
6118;DHT22;3089;48.202;11.510;2023-04-07T08:51:36;8.40;99.90
6118;DHT22;3089;48.202;11.510;2023-04-07T08:54:09;8.30;99.90
6118;DHT22;3089;48.202;11.510;2023-04-07T08:56:38;8.50;99.90
6118;DHT22;3089;48.202;11.510;2023-04-07T08:59:08;8.50;99.90
6118;DHT22;3089;48.202;11.510;2023-04-07T09:01:36;8.40;99.90
6118;DHT22;3089;48.202;11.510;2023-04-07T09:04:05;8.70;99.90
6118;DHT22;3089;48.202;11.510;2023-04-07T09:06:35;8.70;99.90
6118;DHT22;3089;48.202;11.510;2023-04-07T09:09:04;8.80;99.90
6118;DHT22;3089;48.202;11.510;2023-04-07T09:11:36;9.00;99.90
6118;DHT22;3089;48.202;11.510;2023-04-07T09:14:05;9.00;99.90
6118;DHT22;3089;48.202;11.510;2023-04-07T09:16:34;9.20;99.90
6118;DHT22;3089;48.202;11.510;2023-04-07T09:19:02;9.40;99.90
6118;DHT22;3089;48.202;11.510;2023-04-07T09:21:45;9.10;99.90
6118;DHT22;3089;48.202;11.510;2023-04-07T09:24:21;9.30;99.90
6118;DHT22;3089;48.202;11.510;2023-04-07T09:26:50;9.10;99.90
6118;DHT22;3089;48.202;11.510;2023-04-07T09:29:19;9.30;99.90
6118;DHT22;3089;48.202;11.510;2023-04-07T09:31:48;9.40;99.90
6118;DHT22;3089;48.202;11.510;2023-04-07T09:34:27;9.40;99.90
6118;DHT22;3089;48.202;11.510;2023-04-07T09:36:56;9.30;99.90
6118;DHT22;3089;48.202;11.510;2023-04-07T09:39:24;9.30;99.90
6118;DHT22;3089;48.202;11.510;2023-04-07T09:41:54;9.60;99.90
6118;DHT22;3089;48.202;11.510;2023-04-07T09:44:22;10.00;99.90
6118;DHT22;3089;48.202;11.510;2023-04-07T09:46:52;10.00;99.90
6118;DHT22;3089;48.202;11.510;2023-04-07T09:49:20;10.20;99.90
6118;DHT22;3089;48.202;11.510;2023-04-07T09:51:52;10.40;99.90
6118;DHT22;3089;48.202;11.510;2023-04-07T09:54:32;10.80;99.90
6118;DHT22;3089;48.202;11.510;2023-04-07T09:57:03;11.80;99.90
6118;DHT22;3089;48.202;11.510;2023-04-07T09:59:32;11.10;99.90
6118;DHT22;3089;48.202;11.510;2023-04-07T10:02:01;10.60;99.90
6118;DHT22;3089;48.202;11.510;2023-04-07T10:04:29;10.50;99.90
6118;DHT22;3089;48.202;11.510;2023-04-07T10:06:58;10.30;99.90
6118;DHT22;3089;48.202;11.510;2023-04-07T10:09:27;10.30;99.90
6118;DHT22;3089;48.202;11.510;2023-04-07T10:11:56;9.40;99.90
6118;DHT22;3089;48.202;11.510;2023-04-07T10:14:29;9.90;99.90
6118;DHT22;3089;48.202;11.510;2023-04-07T10:16:58;10.00;99.90
6118;DHT22;3089;48.202;11.510;2023-04-07T10:19:29;10.20;99.90
6118;DHT22;3089;48.202;11.510;2023-04-07T10:21:58;10.50;99.90
6118;DHT22;3089;48.202;11.510;2023-04-07T10:24:42;10.60;99.90
6118;DHT22;3089;48.202;11.510;2023-04-07T10:27:15;10.60;99.90
6118;DHT22;3089;48.202;11.510;2023-04-07T10:29:48;10.40;99.90
6118;DHT22;3089;48.202;11.510;2023-04-07T10:32:18;10.40;99.90
6118;DHT22;3089;48.202;11.510;2023-04-07T10:34:55;10.60;99.90
6118;DHT22;3089;48.202;11.510;2023-04-07T10:37:25;10.60;99.90
6118;DHT22;3089;48.202;11.510;2023-04-07T10:40:27;11.80;99.90
6118;DHT22;3089;48.202;11.510;2023-04-07T10:42:57;12.00;99.90
6118;DHT22;3089;48.202;11.510;2023-04-07T10:45:55;11.90;99.90
6118;DHT22;3089;48.202;11.510;2023-04-07T10:48:26;11.40;99.90
6118;DHT22;3089;48.202;11.510;2023-04-07T10:51:16;12.00;99.90
6118;DHT22;3089;48.202;11.510;2023-04-07T10:54:18;12.40;99.90
6118;DHT22;3089;48.202;11.510;2023-04-07T10:57:07;12.00;99.90
6118;DHT22;3089;48.202;11.510;2023-04-07T10:59:38;11.30;99.90
6118;DHT22;3089;48.202;11.510;2023-04-07T11:02:36;11.60;99.90
6118;DHT22;3089;48.202;11.510;2023-04-07T11:05:05;11.70;99.90
6118;DHT22;3089;48.202;11.510;2023-04-07T11:07:44;11.00;99.90
6118;DHT22;3089;48.202;11.510;2023-04-07T11:10:13;11.30;99.90
6118;DHT22;3089;48.202;11.510;2023-04-07T11:12:42;11.00;99.90
6118;DHT22;3089;48.202;11.510;2023-04-07T11:15:16;11.20;99.90
6118;DHT22;3089;48.202;11.510;2023-04-07T11:17:46;11.50;99.90
6118;DHT22;3089;48.202;11.510;2023-04-07T11:20:14;11.50;99.90
6118;DHT22;3089;48.202;11.510;2023-04-07T11:22:42;11.50;99.90
6118;DHT22;3089;48.202;11.510;2023-04-07T11:25:21;11.70;99.90
6118;DHT22;3089;48.202;11.510;2023-04-07T11:27:53;12.00;99.90
6118;DHT22;3089;48.202;11.510;2023-04-07T11:30:21;11.90;99.90
6118;DHT22;3089;48.202;11.510;2023-04-07T11:32:50;11.80;99.90
6118;DHT22;3089;48.202;11.510;2023-04-07T11:35:18;12.10;99.90
6118;DHT22;3089;48.202;11.510;2023-04-07T11:37:46;11.90;99.90
6118;DHT22;3089;48.202;11.510;2023-04-07T11:40:30;12.20;99.90
6118;DHT22;3089;48.202;11.510;2023-04-07T11:42:59;11.90;99.90
6118;DHT22;3089;48.202;11.510;2023-04-07T11:45:28;12.30;99.90
6118;DHT22;3089;48.202;11.510;2023-04-07T11:47:57;12.60;99.90
6118;DHT22;3089;48.202;11.510;2023-04-07T11:50:39;12.60;99.90
6118;DHT22;3089;48.202;11.510;2023-04-07T11:53:08;12.30;99.90
6118;DHT22;3089;48.202;11.510;2023-04-07T11:55:36;12.30;99.90
6118;DHT22;3089;48.202;11.510;2023-04-07T11:58:07;12.10;99.90
6118;DHT22;3089;48.202;11.510;2023-04-07T12:00:36;12.50;99.90
6118;DHT22;3089;48.202;11.510;2023-04-07T12:03:20;12.30;99.90
6118;DHT22;3089;48.202;11.510;2023-04-07T12:05:49;12.10;99.90
6118;DHT22;3089;48.202;11.510;2023-04-07T12:08:17;12.20;99.90
6118;DHT22;3089;48.202;11.510;2023-04-07T12:10:45;12.10;99.90
6118;DHT22;3089;48.202;11.510;2023-04-07T12:13:13;12.40;99.90
6118;DHT22;3089;48.202;11.510;2023-04-07T12:15:41;11.90;99.90
6118;DHT22;3089;48.202;11.510;2023-04-07T12:18:14;12.10;99.90
6118;DHT22;3089;48.202;11.510;2023-04-07T12:20:43;12.50;99.90
6118;DHT22;3089;48.202;11.510;2023-04-07T12:23:11;12.30;99.90
6118;DHT22;3089;48.202;11.510;2023-04-07T12:25:39;12.50;99.90
6118;DHT22;3089;48.202;11.510;2023-04-07T12:28:06;12.60;99.90
6118;DHT22;3089;48.202;11.510;2023-04-07T12:30:35;12.90;99.90
6118;DHT22;3089;48.202;11.510;2023-04-07T12:33:03;12.90;99.90
6118;DHT22;3089;48.202;11.510;2023-04-07T12:35:31;13.10;99.90
6118;DHT22;3089;48.202;11.510;2023-04-07T12:38:00;12.80;99.90
6118;DHT22;3089;48.202;11.510;2023-04-07T12:40:28;12.30;99.90
6118;DHT22;3089;48.202;11.510;2023-04-07T12:42:57;12.50;99.90
6118;DHT22;3089;48.202;11.510;2023-04-07T12:45:24;12.30;99.90
6118;DHT22;3089;48.202;11.510;2023-04-07T12:47:52;12.20;99.90
6118;DHT22;3089;48.202;11.510;2023-04-07T12:50:20;12.20;99.90
6118;DHT22;3089;48.202;11.510;2023-04-07T12:52:48;12.30;99.90
6118;DHT22;3089;48.202;11.510;2023-04-07T12:55:18;12.30;99.90
6118;DHT22;3089;48.202;11.510;2023-04-07T12:57:46;11.90;99.90
6118;DHT22;3089;48.202;11.510;2023-04-07T13:00:14;11.90;99.90
6118;DHT22;3089;48.202;11.510;2023-04-07T13:02:42;12.00;99.90
6118;DHT22;3089;48.202;11.510;2023-04-07T13:05:10;11.90;99.90
6118;DHT22;3089;48.202;11.510;2023-04-07T13:07:38;11.90;99.90
6118;DHT22;3089;48.202;11.510;2023-04-07T13:10:07;11.80;99.90
6118;DHT22;3089;48.202;11.510;2023-04-07T13:12:36;11.70;99.90
6118;DHT22;3089;48.202;11.510;2023-04-07T13:15:06;11.80;99.90
6118;DHT22;3089;48.202;11.510;2023-04-07T13:17:34;12.00;99.90
6118;DHT22;3089;48.202;11.510;2023-04-07T13:20:04;12.00;99.90
6118;DHT22;3089;48.202;11.510;2023-04-07T13:22:33;11.50;99.90
6118;DHT22;3089;48.202;11.510;2023-04-07T13:25:02;11.80;99.90
6118;DHT22;3089;48.202;11.510;2023-04-07T13:27:30;12.00;99.90
6118;DHT22;3089;48.202;11.510;2023-04-07T13:29:59;12.00;99.90
6118;DHT22;3089;48.202;11.510;2023-04-07T13:32:27;12.20;99.90
6118;DHT22;3089;48.202;11.510;2023-04-07T13:34:55;12.30;99.90
6118;DHT22;3089;48.202;11.510;2023-04-07T13:37:22;12.50;99.90
6118;DHT22;3089;48.202;11.510;2023-04-07T13:39:51;12.30;99.90
6118;DHT22;3089;48.202;11.510;2023-04-07T13:42:19;12.00;99.90
6118;DHT22;3089;48.202;11.510;2023-04-07T13:44:47;12.20;99.90
6118;DHT22;3089;48.202;11.510;2023-04-07T13:47:17;12.30;99.90
6118;DHT22;3089;48.202;11.510;2023-04-07T13:49:46;12.30;99.90
6118;DHT22;3089;48.202;11.510;2023-04-07T13:52:14;12.20;99.90
6118;DHT22;3089;48.202;11.510;2023-04-07T13:54:42;12.20;99.90
6118;DHT22;3089;48.202;11.510;2023-04-07T13:57:11;11.80;99.90
6118;DHT22;3089;48.202;11.510;2023-04-07T13:59:44;12.10;99.90
6118;DHT22;3089;48.202;11.510;2023-04-07T14:02:13;12.20;99.90
6118;DHT22;3089;48.202;11.510;2023-04-07T14:04:44;12.00;99.90
6118;DHT22;3089;48.202;11.510;2023-04-07T14:07:11;12.00;99.90
6118;DHT22;3089;48.202;11.510;2023-04-07T14:09:39;12.00;99.90
6118;DHT22;3089;48.202;11.510;2023-04-07T14:12:08;12.10;99.90
6118;DHT22;3089;48.202;11.510;2023-04-07T14:14:36;12.00;99.90
6118;DHT22;3089;48.202;11.510;2023-04-07T14:17:04;12.10;99.90
6118;DHT22;3089;48.202;11.510;2023-04-07T14:19:32;12.00;99.90
6118;DHT22;3089;48.202;11.510;2023-04-07T14:22:02;12.30;99.90
6118;DHT22;3089;48.202;11.510;2023-04-07T14:24:29;12.20;99.90
6118;DHT22;3089;48.202;11.510;2023-04-07T14:26:57;12.00;99.90
6118;DHT22;3089;48.202;11.510;2023-04-07T14:29:27;12.00;99.90
6118;DHT22;3089;48.202;11.510;2023-04-07T14:31:55;12.20;99.90
6118;DHT22;3089;48.202;11.510;2023-04-07T14:34:22;11.80;99.90
6118;DHT22;3089;48.202;11.510;2023-04-07T14:36:54;11.90;99.90
6118;DHT22;3089;48.202;11.510;2023-04-07T14:39:24;11.90;99.90
6118;DHT22;3089;48.202;11.510;2023-04-07T14:41:52;11.80;99.90
6118;DHT22;3089;48.202;11.510;2023-04-07T14:44:20;11.90;99.90
6118;DHT22;3089;48.202;11.510;2023-04-07T14:46:47;11.90;99.90
6118;DHT22;3089;48.202;11.510;2023-04-07T14:49:15;11.80;99.90
6118;DHT22;3089;48.202;11.510;2023-04-07T14:51:43;11.90;99.90
6118;DHT22;3089;48.202;11.510;2023-04-07T14:54:11;11.90;99.90
6118;DHT22;3089;48.202;11.510;2023-04-07T14:56:40;11.80;99.90
6118;DHT22;3089;48.202;11.510;2023-04-07T14:59:08;11.80;99.90
6118;DHT22;3089;48.202;11.510;2023-04-07T15:01:36;11.90;99.90
6118;DHT22;3089;48.202;11.510;2023-04-07T15:04:05;11.70;99.90
6118;DHT22;3089;48.202;11.510;2023-04-07T15:06:33;11.60;99.90
6118;DHT22;3089;48.202;11.510;2023-04-07T15:09:01;11.60;99.90
6118;DHT22;3089;48.202;11.510;2023-04-07T15:11:29;11.70;99.90
6118;DHT22;3089;48.202;11.510;2023-04-07T15:13:58;11.70;99.90
6118;DHT22;3089;48.202;11.510;2023-04-07T15:16:26;11.60;99.90
6118;DHT22;3089;48.202;11.510;2023-04-07T15:18:54;11.70;99.90
6118;DHT22;3089;48.202;11.510;2023-04-07T15:21:22;11.70;99.90
6118;DHT22;3089;48.202;11.510;2023-04-07T15:23:49;11.60;99.90
6118;DHT22;3089;48.202;11.510;2023-04-07T15:26:17;11.50;99.90
6118;DHT22;3089;48.202;11.510;2023-04-07T15:28:46;11.60;99.90
6118;DHT22;3089;48.202;11.510;2023-04-07T15:31:15;11.60;99.90
6118;DHT22;3089;48.202;11.510;2023-04-07T15:33:43;11.50;99.90
6118;DHT22;3089;48.202;11.510;2023-04-07T15:36:11;11.50;99.90
6118;DHT22;3089;48.202;11.510;2023-04-07T15:38:39;11.60;99.90
6118;DHT22;3089;48.202;11.510;2023-04-07T15:41:07;11.50;99.90
6118;DHT22;3089;48.202;11.510;2023-04-07T15:43:35;11.40;99.90
6118;DHT22;3089;48.202;11.510;2023-04-07T15:46:03;11.50;99.90
6118;DHT22;3089;48.202;11.510;2023-04-07T15:48:32;11.50;99.90
6118;DHT22;3089;48.202;11.510;2023-04-07T15:51:00;11.30;99.90
6118;DHT22;3089;48.202;11.510;2023-04-07T15:53:28;11.40;99.90
6118;DHT22;3089;48.202;11.510;2023-04-07T15:55:56;11.60;99.90
6118;DHT22;3089;48.202;11.510;2023-04-07T15:58:24;11.50;99.90
6118;DHT22;3089;48.202;11.510;2023-04-07T16:00:52;11.50;99.90
6118;DHT22;3089;48.202;11.510;2023-04-07T16:03:20;11.40;99.90
6118;DHT22;3089;48.202;11.510;2023-04-07T16:05:49;11.50;99.90
6118;DHT22;3089;48.202;11.510;2023-04-07T16:08:17;11.50;99.90